sensor_id;sensor_type;location;lat;lon;timestamp;temperature;humidity
57664;DHT22;43493;53.098;6.064;2023-04-08T00:00:43;5.80;99.90
57664;DHT22;43493;53.098;6.064;2023-04-08T00:03:09;5.80;99.90
57664;DHT22;43493;53.098;6.064;2023-04-08T00:05:35;5.80;99.90
57664;DHT22;43493;53.098;6.064;2023-04-08T00:08:01;5.80;99.90
57664;DHT22;43493;53.098;6.064;2023-04-08T00:10:26;5.80;99.90
57664;DHT22;43493;53.098;6.064;2023-04-08T00:12:52;5.70;99.90
57664;DHT22;43493;53.098;6.064;2023-04-08T00:15:18;5.70;99.90
57664;DHT22;43493;53.098;6.064;2023-04-08T00:17:44;5.70;99.90
57664;DHT22;43493;53.098;6.064;2023-04-08T00:20:10;5.60;99.90
57664;DHT22;43493;53.098;6.064;2023-04-08T00:22:36;5.60;99.90
57664;DHT22;43493;53.098;6.064;2023-04-08T00:25:02;5.60;99.90
57664;DHT22;43493;53.098;6.064;2023-04-08T00:27:31;5.60;99.90
57664;DHT22;43493;53.098;6.064;2023-04-08T00:29:57;5.50;99.90
57664;DHT22;43493;53.098;6.064;2023-04-08T00:32:25;5.50;99.90
57664;DHT22;43493;53.098;6.064;2023-04-08T00:34:51;5.50;99.90
57664;DHT22;43493;53.098;6.064;2023-04-08T00:37:17;5.40;99.90
57664;DHT22;43493;53.098;6.064;2023-04-08T00:39:42;5.40;99.90
57664;DHT22;43493;53.098;6.064;2023-04-08T00:42:08;5.40;99.90
57664;DHT22;43493;53.098;6.064;2023-04-08T00:44:34;5.40;99.90
57664;DHT22;43493;53.098;6.064;2023-04-08T00:46:59;5.30;99.90
57664;DHT22;43493;53.098;6.064;2023-04-08T00:49:25;5.30;99.90
57664;DHT22;43493;53.098;6.064;2023-04-08T00:51:53;5.30;99.90
57664;DHT22;43493;53.098;6.064;2023-04-08T00:54:19;5.30;99.90
57664;DHT22;43493;53.098;6.064;2023-04-08T00:56:45;5.30;99.90
57664;DHT22;43493;53.098;6.064;2023-04-08T00:59:11;5.30;99.90
57664;DHT22;43493;53.098;6.064;2023-04-08T01:01:43;5.20;99.90
57664;DHT22;43493;53.098;6.064;2023-04-08T01:07:12;5.10;99.90
57664;DHT22;43493;53.098;6.064;2023-04-08T01:09:43;5.10;99.90
57664;DHT22;43493;53.098;6.064;2023-04-08T01:12:11;5.10;99.90
57664;DHT22;43493;53.098;6.064;2023-04-08T01:14:42;5.10;99.90
57664;DHT22;43493;53.098;6.064;2023-04-08T01:17:09;5.10;99.90
57664;DHT22;43493;53.098;6.064;2023-04-08T01:19:38;5.10;99.90
57664;DHT22;43493;53.098;6.064;2023-04-08T01:25:00;5.00;99.90
57664;DHT22;43493;53.098;6.064;2023-04-08T01:27:30;5.00;99.90
57664;DHT22;43493;53.098;6.064;2023-04-08T01:29:57;5.00;99.90
57664;DHT22;43493;53.098;6.064;2023-04-08T01:32:25;5.00;99.90
57664;DHT22;43493;53.098;6.064;2023-04-08T01:34:52;4.90;99.90
57664;DHT22;43493;53.098;6.064;2023-04-08T01:37:19;4.90;99.90
57664;DHT22;43493;53.098;6.064;2023-04-08T01:39:46;4.90;99.90
57664;DHT22;43493;53.098;6.064;2023-04-08T01:42:13;4.80;99.90
57664;DHT22;43493;53.098;6.064;2023-04-08T01:44:40;4.80;99.90
57664;DHT22;43493;53.098;6.064;2023-04-08T01:47:08;4.80;99.90
57664;DHT22;43493;53.098;6.064;2023-04-08T01:49:35;4.80;99.90
57664;DHT22;43493;53.098;6.064;2023-04-08T01:52:02;4.70;99.90
57664;DHT22;43493;53.098;6.064;2023-04-08T01:54:29;4.70;99.90
57664;DHT22;43493;53.098;6.064;2023-04-08T01:56:56;4.70;99.90
57664;DHT22;43493;53.098;6.064;2023-04-08T01:59:24;4.60;99.90
57664;DHT22;43493;53.098;6.064;2023-04-08T02:01:51;4.60;99.90
57664;DHT22;43493;53.098;6.064;2023-04-08T02:04:17;4.60;99.90
57664;DHT22;43493;53.098;6.064;2023-04-08T02:06:43;4.50;99.90
57664;DHT22;43493;53.098;6.064;2023-04-08T02:09:10;4.50;99.90
57664;DHT22;43493;53.098;6.064;2023-04-08T02:11:35;4.50;99.90
57664;DHT22;43493;53.098;6.064;2023-04-08T02:14:01;4.40;99.90
57664;DHT22;43493;53.098;6.064;2023-04-08T02:16:50;4.40;99.90
57664;DHT22;43493;53.098;6.064;2023-04-08T02:19:28;4.30;99.90
57664;DHT22;43493;53.098;6.064;2023-04-08T02:22:04;4.30;99.90
57664;DHT22;43493;53.098;6.064;2023-04-08T02:24:31;4.30;99.90
57664;DHT22;43493;53.098;6.064;2023-04-08T02:26:59;4.30;99.90
57664;DHT22;43493;53.098;6.064;2023-04-08T02:29:26;4.30;99.90
57664;DHT22;43493;53.098;6.064;2023-04-08T02:31:54;4.20;99.90
57664;DHT22;43493;53.098;6.064;2023-04-08T02:34:21;4.20;99.90
57664;DHT22;43493;53.098;6.064;2023-04-08T02:36:48;4.20;99.90
57664;DHT22;43493;53.098;6.064;2023-04-08T02:39:16;4.10;99.90
57664;DHT22;43493;53.098;6.064;2023-04-08T02:41:41;4.20;99.90
57664;DHT22;43493;53.098;6.064;2023-04-08T02:44:08;4.10;99.90
57664;DHT22;43493;53.098;6.064;2023-04-08T02:46:34;4.10;99.90
57664;DHT22;43493;53.098;6.064;2023-04-08T02:49:00;4.10;99.90
57664;DHT22;43493;53.098;6.064;2023-04-08T02:51:25;4.10;99.90
57664;DHT22;43493;53.098;6.064;2023-04-08T02:53:52;4.10;99.90
57664;DHT22;43493;53.098;6.064;2023-04-08T02:56:19;4.10;99.90
57664;DHT22;43493;53.098;6.064;2023-04-08T02:58:46;4.00;99.90
57664;DHT22;43493;53.098;6.064;2023-04-08T03:01:11;4.00;99.90
57664;DHT22;43493;53.098;6.064;2023-04-08T03:03:37;4.10;99.90
57664;DHT22;43493;53.098;6.064;2023-04-08T03:06:03;4.00;99.90
57664;DHT22;43493;53.098;6.064;2023-04-08T03:08:29;4.00;99.90
57664;DHT22;43493;53.098;6.064;2023-04-08T03:10:55;4.00;99.90
57664;DHT22;43493;53.098;6.064;2023-04-08T03:13:20;4.00;99.90
57664;DHT22;43493;53.098;6.064;2023-04-08T03:15:46;4.00;99.90
57664;DHT22;43493;53.098;6.064;2023-04-08T03:18:12;4.00;99.90
57664;DHT22;43493;53.098;6.064;2023-04-08T03:20:37;3.90;99.90
57664;DHT22;43493;53.098;6.064;2023-04-08T03:23:03;4.00;99.90
57664;DHT22;43493;53.098;6.064;2023-04-08T03:25:29;4.00;99.90
57664;DHT22;43493;53.098;6.064;2023-04-08T03:27:57;3.90;99.90
57664;DHT22;43493;53.098;6.064;2023-04-08T03:30:23;3.90;99.90
57664;DHT22;43493;53.098;6.064;2023-04-08T03:32:48;3.90;99.90
57664;DHT22;43493;53.098;6.064;2023-04-08T03:35:14;3.90;99.90
57664;DHT22;43493;53.098;6.064;2023-04-08T03:37:40;3.80;99.90
57664;DHT22;43493;53.098;6.064;2023-04-08T03:40:06;3.90;99.90
57664;DHT22;43493;53.098;6.064;2023-04-08T03:42:32;3.80;99.90
57664;DHT22;43493;53.098;6.064;2023-04-08T03:44:59;3.90;99.90
57664;DHT22;43493;53.098;6.064;2023-04-08T03:47:25;3.80;99.90
57664;DHT22;43493;53.098;6.064;2023-04-08T03:49:54;3.80;99.90
57664;DHT22;43493;53.098;6.064;2023-04-08T03:52:20;3.70;99.90
57664;DHT22;43493;53.098;6.064;2023-04-08T03:54:46;3.70;99.90
57664;DHT22;43493;53.098;6.064;2023-04-08T03:57:11;3.70;99.90
57664;DHT22;43493;53.098;6.064;2023-04-08T03:59:37;3.70;99.90
57664;DHT22;43493;53.098;6.064;2023-04-08T04:02:05;3.70;99.90
57664;DHT22;43493;53.098;6.064;2023-04-08T04:04:31;3.70;99.90
57664;DHT22;43493;53.098;6.064;2023-04-08T04:06:57;3.60;99.90
57664;DHT22;43493;53.098;6.064;2023-04-08T04:09:22;3.60;99.90
57664;DHT22;43493;53.098;6.064;2023-04-08T04:11:48;3.60;99.90
57664;DHT22;43493;53.098;6.064;2023-04-08T04:14:14;3.70;99.90
57664;DHT22;43493;53.098;6.064;2023-04-08T04:16:40;3.70;99.90
57664;DHT22;43493;53.098;6.064;2023-04-08T04:19:05;3.60;99.90
57664;DHT22;43493;53.098;6.064;2023-04-08T04:21:31;3.60;99.90
57664;DHT22;43493;53.098;6.064;2023-04-08T04:23:57;3.60;99.90
57664;DHT22;43493;53.098;6.064;2023-04-08T04:26:22;3.60;99.90
57664;DHT22;43493;53.098;6.064;2023-04-08T04:28:48;3.50;99.90
57664;DHT22;43493;53.098;6.064;2023-04-08T04:31:18;3.50;99.90
57664;DHT22;43493;53.098;6.064;2023-04-08T04:33:45;3.60;99.90
57664;DHT22;43493;53.098;6.064;2023-04-08T04:36:12;3.50;99.90
57664;DHT22;43493;53.098;6.064;2023-04-08T04:38:37;3.50;99.90
57664;DHT22;43493;53.098;6.064;2023-04-08T04:41:03;3.50;99.90
57664;DHT22;43493;53.098;6.064;2023-04-08T04:43:29;3.60;99.90
57664;DHT22;43493;53.098;6.064;2023-04-08T04:45:54;3.60;99.90
57664;DHT22;43493;53.098;6.064;2023-04-08T04:48:21;3.50;99.90
57664;DHT22;43493;53.098;6.064;2023-04-08T04:50:55;3.60;99.90
57664;DHT22;43493;53.098;6.064;2023-04-08T04:53:21;3.50;99.90
57664;DHT22;43493;53.098;6.064;2023-04-08T04:55:46;3.50;99.90
57664;DHT22;43493;53.098;6.064;2023-04-08T04:58:12;3.50;99.90
57664;DHT22;43493;53.098;6.064;2023-04-08T05:00:38;3.50;99.90
57664;DHT22;43493;53.098;6.064;2023-04-08T05:03:03;3.50;99.90
57664;DHT22;43493;53.098;6.064;2023-04-08T05:05:29;3.50;99.90
57664;DHT22;43493;53.098;6.064;2023-04-08T05:07:55;3.40;99.90
57664;DHT22;43493;53.098;6.064;2023-04-08T05:10:20;3.40;99.90
57664;DHT22;43493;53.098;6.064;2023-04-08T05:12:46;3.40;99.90
57664;DHT22;43493;53.098;6.064;2023-04-08T05:15:12;3.40;99.90
57664;DHT22;43493;53.098;6.064;2023-04-08T05:17:37;3.40;99.90
57664;DHT22;43493;53.098;6.064;2023-04-08T05:20:04;3.40;99.90
57664;DHT22;43493;53.098;6.064;2023-04-08T05:22:29;3.40;99.90
57664;DHT22;43493;53.098;6.064;2023-04-08T05:24:55;3.40;99.90
57664;DHT22;43493;53.098;6.064;2023-04-08T05:27:21;3.40;99.90
57664;DHT22;43493;53.098;6.064;2023-04-08T05:29:47;3.50;99.90
57664;DHT22;43493;53.098;6.064;2023-04-08T05:32:13;3.50;99.90
57664;DHT22;43493;53.098;6.064;2023-04-08T05:34:38;3.50;99.90
57664;DHT22;43493;53.098;6.064;2023-04-08T05:37:04;3.60;99.90
57664;DHT22;43493;53.098;6.064;2023-04-08T05:39:30;3.50;99.90
57664;DHT22;43493;53.098;6.064;2023-04-08T05:41:55;3.60;99.90
57664;DHT22;43493;53.098;6.064;2023-04-08T05:44:21;3.60;99.90
57664;DHT22;43493;53.098;6.064;2023-04-08T05:46:47;3.60;99.90
57664;DHT22;43493;53.098;6.064;2023-04-08T05:49:12;3.70;99.90
57664;DHT22;43493;53.098;6.064;2023-04-08T05:51:38;3.70;99.90
57664;DHT22;43493;53.098;6.064;2023-04-08T05:54:04;3.70;99.90
57664;DHT22;43493;53.098;6.064;2023-04-08T05:56:30;3.80;99.90
57664;DHT22;43493;53.098;6.064;2023-04-08T05:58:57;3.90;99.90
57664;DHT22;43493;53.098;6.064;2023-04-08T06:01:22;3.90;99.90
57664;DHT22;43493;53.098;6.064;2023-04-08T06:03:48;4.00;99.90
57664;DHT22;43493;53.098;6.064;2023-04-08T06:06:14;3.90;99.90
57664;DHT22;43493;53.098;6.064;2023-04-08T06:08:40;3.90;99.90
57664;DHT22;43493;53.098;6.064;2023-04-08T06:11:06;4.00;99.90
57664;DHT22;43493;53.098;6.064;2023-04-08T06:13:32;4.00;99.90
57664;DHT22;43493;53.098;6.064;2023-04-08T06:15:58;4.00;99.90
57664;DHT22;43493;53.098;6.064;2023-04-08T06:18:34;4.00;99.90
57664;DHT22;43493;53.098;6.064;2023-04-08T06:20:59;4.10;99.90
57664;DHT22;43493;53.098;6.064;2023-04-08T06:23:25;4.10;99.90
57664;DHT22;43493;53.098;6.064;2023-04-08T06:25:52;4.20;99.90
57664;DHT22;43493;53.098;6.064;2023-04-08T06:28:18;4.20;99.90
57664;DHT22;43493;53.098;6.064;2023-04-08T06:30:44;4.30;99.90
57664;DHT22;43493;53.098;6.064;2023-04-08T06:33:09;4.40;99.90
57664;DHT22;43493;53.098;6.064;2023-04-08T06:35:35;4.40;99.90
57664;DHT22;43493;53.098;6.064;2023-04-08T06:38:02;4.50;99.90
57664;DHT22;43493;53.098;6.064;2023-04-08T06:40:28;4.60;99.90
57664;DHT22;43493;53.098;6.064;2023-04-08T06:42:54;4.70;99.90
57664;DHT22;43493;53.098;6.064;2023-04-08T06:45:20;4.90;99.90
57664;DHT22;43493;53.098;6.064;2023-04-08T06:47:46;5.40;99.90
57664;DHT22;43493;53.098;6.064;2023-04-08T06:50:12;6.10;99.90
57664;DHT22;43493;53.098;6.064;2023-04-08T06:52:37;6.70;99.90
57664;DHT22;43493;53.098;6.064;2023-04-08T06:55:03;6.70;99.90
57664;DHT22;43493;53.098;6.064;2023-04-08T06:57:29;6.60;99.90
57664;DHT22;43493;53.098;6.064;2023-04-08T06:59:55;6.40;99.90
57664;DHT22;43493;53.098;6.064;2023-04-08T07:02:21;6.20;99.90
57664;DHT22;43493;53.098;6.064;2023-04-08T07:04:48;6.10;99.90
57664;DHT22;43493;53.098;6.064;2023-04-08T07:07:13;6.00;99.90
57664;DHT22;43493;53.098;6.064;2023-04-08T07:09:39;5.90;99.90
57664;DHT22;43493;53.098;6.064;2023-04-08T07:12:07;5.90;99.90
57664;DHT22;43493;53.098;6.064;2023-04-08T07:14:33;5.90;99.90
57664;DHT22;43493;53.098;6.064;2023-04-08T07:16:59;5.90;99.90
57664;DHT22;43493;53.098;6.064;2023-04-08T07:19:25;6.00;99.90
57664;DHT22;43493;53.098;6.064;2023-04-08T07:21:51;6.40;99.90
57664;DHT22;43493;53.098;6.064;2023-04-08T07:24:17;6.90;99.90
57664;DHT22;43493;53.098;6.064;2023-04-08T07:26:43;7.10;99.90
57664;DHT22;43493;53.098;6.064;2023-04-08T07:29:09;7.10;99.90
57664;DHT22;43493;53.098;6.064;2023-04-08T07:31:35;7.00;99.90
57664;DHT22;43493;53.098;6.064;2023-04-08T07:34:01;6.80;99.90
57664;DHT22;43493;53.098;6.064;2023-04-08T07:36:27;6.80;99.90
57664;DHT22;43493;53.098;6.064;2023-04-08T07:38:52;6.70;99.90
57664;DHT22;43493;53.098;6.064;2023-04-08T07:41:18;6.70;99.90
57664;DHT22;43493;53.098;6.064;2023-04-08T07:43:45;6.70;99.90
57664;DHT22;43493;53.098;6.064;2023-04-08T07:46:11;6.70;99.90
57664;DHT22;43493;53.098;6.064;2023-04-08T07:48:37;6.70;99.90
57664;DHT22;43493;53.098;6.064;2023-04-08T07:51:04;6.80;99.90
57664;DHT22;43493;53.098;6.064;2023-04-08T07:53:30;6.90;99.90
57664;DHT22;43493;53.098;6.064;2023-04-08T07:55:56;7.00;99.90
57664;DHT22;43493;53.098;6.064;2023-04-08T07:58:22;7.00;99.90
57664;DHT22;43493;53.098;6.064;2023-04-08T08:00:49;7.20;99.90
57664;DHT22;43493;53.098;6.064;2023-04-08T08:03:15;7.30;99.90
57664;DHT22;43493;53.098;6.064;2023-04-08T08:05:41;7.50;99.90
57664;DHT22;43493;53.098;6.064;2023-04-08T08:08:07;7.50;99.90
57664;DHT22;43493;53.098;6.064;2023-04-08T08:10:38;7.60;99.90
57664;DHT22;43493;53.098;6.064;2023-04-08T08:13:05;7.60;99.90
57664;DHT22;43493;53.098;6.064;2023-04-08T08:15:31;7.70;99.90
57664;DHT22;43493;53.098;6.064;2023-04-08T08:17:57;7.70;99.90
57664;DHT22;43493;53.098;6.064;2023-04-08T08:20:23;7.90;99.90
57664;DHT22;43493;53.098;6.064;2023-04-08T08:22:48;8.00;99.90
57664;DHT22;43493;53.098;6.064;2023-04-08T08:25:14;8.00;99.90
57664;DHT22;43493;53.098;6.064;2023-04-08T08:27:40;8.00;99.90
57664;DHT22;43493;53.098;6.064;2023-04-08T08:30:07;8.00;99.90
57664;DHT22;43493;53.098;6.064;2023-04-08T08:32:34;8.00;99.90
57664;DHT22;43493;53.098;6.064;2023-04-08T08:35:00;8.00;99.90
57664;DHT22;43493;53.098;6.064;2023-04-08T08:37:26;8.10;99.90
57664;DHT22;43493;53.098;6.064;2023-04-08T08:39:52;8.20;99.90
57664;DHT22;43493;53.098;6.064;2023-04-08T08:42:22;8.20;99.90
57664;DHT22;43493;53.098;6.064;2023-04-08T08:44:48;8.30;99.90
57664;DHT22;43493;53.098;6.064;2023-04-08T08:47:17;8.40;99.90
57664;DHT22;43493;53.098;6.064;2023-04-08T08:49:43;8.50;99.90
57664;DHT22;43493;53.098;6.064;2023-04-08T08:52:10;8.70;99.90
57664;DHT22;43493;53.098;6.064;2023-04-08T08:54:36;8.80;99.90
57664;DHT22;43493;53.098;6.064;2023-04-08T08:57:02;8.80;99.90
57664;DHT22;43493;53.098;6.064;2023-04-08T08:59:28;8.70;99.90
57664;DHT22;43493;53.098;6.064;2023-04-08T09:01:54;8.70;99.90
57664;DHT22;43493;53.098;6.064;2023-04-08T09:04:20;8.70;99.90
57664;DHT22;43493;53.098;6.064;2023-04-08T09:06:49;8.70;99.90
57664;DHT22;43493;53.098;6.064;2023-04-08T09:09:16;8.70;99.90
57664;DHT22;43493;53.098;6.064;2023-04-08T09:11:43;8.70;99.90
57664;DHT22;43493;53.098;6.064;2023-04-08T09:14:17;8.70;99.90
57664;DHT22;43493;53.098;6.064;2023-04-08T09:16:43;8.70;99.90
57664;DHT22;43493;53.098;6.064;2023-04-08T09:19:10;8.70;99.90
57664;DHT22;43493;53.098;6.064;2023-04-08T09:21:36;8.70;99.90
57664;DHT22;43493;53.098;6.064;2023-04-08T09:24:03;8.70;99.90
57664;DHT22;43493;53.098;6.064;2023-04-08T09:26:28;8.70;99.90
57664;DHT22;43493;53.098;6.064;2023-04-08T09:29:05;8.80;99.90
57664;DHT22;43493;53.098;6.064;2023-04-08T09:31:33;8.90;99.90
57664;DHT22;43493;53.098;6.064;2023-04-08T09:34:09;8.90;99.90
57664;DHT22;43493;53.098;6.064;2023-04-08T09:36:36;9.00;99.90
57664;DHT22;43493;53.098;6.064;2023-04-08T09:39:02;9.10;99.90
57664;DHT22;43493;53.098;6.064;2023-04-08T09:41:28;9.00;99.90
57664;DHT22;43493;53.098;6.064;2023-04-08T09:43:57;9.00;99.90
57664;DHT22;43493;53.098;6.064;2023-04-08T09:49:25;9.10;99.90
57664;DHT22;43493;53.098;6.064;2023-04-08T09:54:58;9.20;99.90
57664;DHT22;43493;53.098;6.064;2023-04-08T09:57:45;9.10;99.90
57664;DHT22;43493;53.098;6.064;2023-04-08T10:00:16;9.10;99.90
57664;DHT22;43493;53.098;6.064;2023-04-08T10:05:26;8.80;99.90
57664;DHT22;43493;53.098;6.064;2023-04-08T10:07:53;8.80;99.90
57664;DHT22;43493;53.098;6.064;2023-04-08T10:10:20;8.70;99.90
57664;DHT22;43493;53.098;6.064;2023-04-08T10:12:48;8.70;99.90
57664;DHT22;43493;53.098;6.064;2023-04-08T10:15:24;8.70;99.90
57664;DHT22;43493;53.098;6.064;2023-04-08T10:18:33;8.60;99.90
57664;DHT22;43493;53.098;6.064;2023-04-08T10:20:45;8.70;99.90
57664;DHT22;43493;53.098;6.064;2023-04-08T10:23:16;8.70;99.90
57664;DHT22;43493;53.098;6.064;2023-04-08T10:25:46;8.70;99.90
57664;DHT22;43493;53.098;6.064;2023-04-08T10:33:12;8.70;99.90
57664;DHT22;43493;53.098;6.064;2023-04-08T10:35:50;8.80;99.90
57664;DHT22;43493;53.098;6.064;2023-04-08T10:38:18;8.80;99.90
57664;DHT22;43493;53.098;6.064;2023-04-08T10:40:44;8.80;99.90
57664;DHT22;43493;53.098;6.064;2023-04-08T10:43:12;8.80;99.90
57664;DHT22;43493;53.098;6.064;2023-04-08T10:45:39;8.80;99.90
57664;DHT22;43493;53.098;6.064;2023-04-08T10:50:37;8.80;99.90
57664;DHT22;43493;53.098;6.064;2023-04-08T10:53:03;8.80;99.90
57664;DHT22;43493;53.098;6.064;2023-04-08T10:55:29;8.80;99.90
57664;DHT22;43493;53.098;6.064;2023-04-08T10:58:09;8.80;99.90
57664;DHT22;43493;53.098;6.064;2023-04-08T11:00:37;8.70;99.90
57664;DHT22;43493;53.098;6.064;2023-04-08T11:03:04;8.70;99.90
57664;DHT22;43493;53.098;6.064;2023-04-08T11:05:31;8.70;99.90
57664;DHT22;43493;53.098;6.064;2023-04-08T11:07:58;8.70;99.90
57664;DHT22;43493;53.098;6.064;2023-04-08T11:10:25;8.70;99.90
57664;DHT22;43493;53.098;6.064;2023-04-08T11:12:55;8.80;99.90
57664;DHT22;43493;53.098;6.064;2023-04-08T11:15:23;8.80;99.90
57664;DHT22;43493;53.098;6.064;2023-04-08T11:17:49;8.70;99.90
57664;DHT22;43493;53.098;6.064;2023-04-08T11:20:15;8.80;99.90
57664;DHT22;43493;53.098;6.064;2023-04-08T11:22:42;8.80;99.90
57664;DHT22;43493;53.098;6.064;2023-04-08T11:25:09;8.80;99.90
57664;DHT22;43493;53.098;6.064;2023-04-08T11:27:35;8.90;99.90
57664;DHT22;43493;53.098;6.064;2023-04-08T11:30:01;8.90;99.90
57664;DHT22;43493;53.098;6.064;2023-04-08T11:32:27;8.90;99.90
57664;DHT22;43493;53.098;6.064;2023-04-08T11:34:59;8.90;99.90
57664;DHT22;43493;53.098;6.064;2023-04-08T11:37:26;8.90;99.90
57664;DHT22;43493;53.098;6.064;2023-04-08T11:39:53;8.90;99.90
57664;DHT22;43493;53.098;6.064;2023-04-08T11:42:31;9.00;99.90
57664;DHT22;43493;53.098;6.064;2023-04-08T11:44:57;9.00;99.90
57664;DHT22;43493;53.098;6.064;2023-04-08T11:47:33;9.00;99.90
57664;DHT22;43493;53.098;6.064;2023-04-08T11:49:59;9.10;99.90
57664;DHT22;43493;53.098;6.064;2023-04-08T11:52:46;9.10;99.90
57664;DHT22;43493;53.098;6.064;2023-04-08T11:55:22;9.20;99.90
57664;DHT22;43493;53.098;6.064;2023-04-08T11:57:48;9.30;99.90
57664;DHT22;43493;53.098;6.064;2023-04-08T12:00:14;9.30;99.90
57664;DHT22;43493;53.098;6.064;2023-04-08T12:02:40;9.40;99.90
57664;DHT22;43493;53.098;6.064;2023-04-08T12:05:06;9.40;99.90
57664;DHT22;43493;53.098;6.064;2023-04-08T12:07:32;9.40;99.90
57664;DHT22;43493;53.098;6.064;2023-04-08T12:09:57;9.50;99.90
57664;DHT22;43493;53.098;6.064;2023-04-08T12:12:23;9.50;99.90
57664;DHT22;43493;53.098;6.064;2023-04-08T12:14:49;9.50;99.90
57664;DHT22;43493;53.098;6.064;2023-04-08T12:17:15;9.50;99.90
57664;DHT22;43493;53.098;6.064;2023-04-08T12:19:41;9.50;99.90
57664;DHT22;43493;53.098;6.064;2023-04-08T12:22:07;9.60;99.90
57664;DHT22;43493;53.098;6.064;2023-04-08T12:24:32;9.50;99.90
57664;DHT22;43493;53.098;6.064;2023-04-08T12:26:58;9.50;99.90
57664;DHT22;43493;53.098;6.064;2023-04-08T12:29:24;9.50;99.90
57664;DHT22;43493;53.098;6.064;2023-04-08T12:31:49;9.50;99.90
57664;DHT22;43493;53.098;6.064;2023-04-08T12:34:16;9.50;99.90
57664;DHT22;43493;53.098;6.064;2023-04-08T12:36:42;9.60;99.90
57664;DHT22;43493;53.098;6.064;2023-04-08T12:39:09;9.60;99.90
57664;DHT22;43493;53.098;6.064;2023-04-08T12:41:35;9.60;99.90
57664;DHT22;43493;53.098;6.064;2023-04-08T12:44:00;9.60;99.90
57664;DHT22;43493;53.098;6.064;2023-04-08T12:46:26;9.60;99.90
57664;DHT22;43493;53.098;6.064;2023-04-08T12:48:53;9.60;99.90
57664;DHT22;43493;53.098;6.064;2023-04-08T12:51:18;9.70;99.90
57664;DHT22;43493;53.098;6.064;2023-04-08T12:53:44;9.70;99.90
57664;DHT22;43493;53.098;6.064;2023-04-08T12:56:10;9.60;99.90
57664;DHT22;43493;53.098;6.064;2023-04-08T12:58:36;9.60;99.90
57664;DHT22;43493;53.098;6.064;2023-04-08T13:01:02;9.60;99.90
57664;DHT22;43493;53.098;6.064;2023-04-08T13:03:27;9.60;99.90
57664;DHT22;43493;53.098;6.064;2023-04-08T13:05:56;9.60;99.90
57664;DHT22;43493;53.098;6.064;2023-04-08T13:08:24;9.60;99.90
57664;DHT22;43493;53.098;6.064;2023-04-08T13:10:49;9.70;99.90
57664;DHT22;43493;53.098;6.064;2023-04-08T13:13:15;9.70;99.90
57664;DHT22;43493;53.098;6.064;2023-04-08T13:15:41;9.70;99.90
57664;DHT22;43493;53.098;6.064;2023-04-08T13:18:08;9.80;99.90
57664;DHT22;43493;53.098;6.064;2023-04-08T13:20:34;9.80;99.90
57664;DHT22;43493;53.098;6.064;2023-04-08T13:23:00;9.80;99.90
57664;DHT22;43493;53.098;6.064;2023-04-08T13:25:26;9.80;99.90
57664;DHT22;43493;53.098;6.064;2023-04-08T13:27:51;9.80;99.90
57664;DHT22;43493;53.098;6.064;2023-04-08T13:30:17;9.80;99.90
57664;DHT22;43493;53.098;6.064;2023-04-08T13:32:43;9.80;99.90
57664;DHT22;43493;53.098;6.064;2023-04-08T13:35:09;9.80;99.90
57664;DHT22;43493;53.098;6.064;2023-04-08T13:37:35;9.80;99.90
57664;DHT22;43493;53.098;6.064;2023-04-08T13:40:00;9.80;99.90
57664;DHT22;43493;53.098;6.064;2023-04-08T13:42:26;9.80;99.90
57664;DHT22;43493;53.098;6.064;2023-04-08T13:44:52;9.90;99.90
57664;DHT22;43493;53.098;6.064;2023-04-08T13:47:18;10.00;99.90
57664;DHT22;43493;53.098;6.064;2023-04-08T13:49:44;10.00;99.90
57664;DHT22;43493;53.098;6.064;2023-04-08T13:52:09;10.00;99.90
57664;DHT22;43493;53.098;6.064;2023-04-08T13:54:35;10.00;99.90
57664;DHT22;43493;53.098;6.064;2023-04-08T13:57:01;10.00;99.90
57664;DHT22;43493;53.098;6.064;2023-04-08T13:59:27;10.00;99.90
57664;DHT22;43493;53.098;6.064;2023-04-08T14:01:53;10.00;99.90
57664;DHT22;43493;53.098;6.064;2023-04-08T14:04:20;10.00;99.90
57664;DHT22;43493;53.098;6.064;2023-04-08T14:06:46;9.90;99.90
57664;DHT22;43493;53.098;6.064;2023-04-08T14:09:12;10.00;99.90
57664;DHT22;43493;53.098;6.064;2023-04-08T14:11:38;9.90;99.90
57664;DHT22;43493;53.098;6.064;2023-04-08T14:14:03;9.90;99.90
57664;DHT22;43493;53.098;6.064;2023-04-08T14:16:30;9.90;99.90
57664;DHT22;43493;53.098;6.064;2023-04-08T14:18:56;9.90;99.90
57664;DHT22;43493;53.098;6.064;2023-04-08T14:21:22;10.00;99.90
57664;DHT22;43493;53.098;6.064;2023-04-08T14:23:49;10.00;99.90
57664;DHT22;43493;53.098;6.064;2023-04-08T14:26:15;10.00;99.90
57664;DHT22;43493;53.098;6.064;2023-04-08T14:28:41;10.00;99.90
57664;DHT22;43493;53.098;6.064;2023-04-08T14:31:06;10.00;99.90
57664;DHT22;43493;53.098;6.064;2023-04-08T14:33:32;10.00;99.90
57664;DHT22;43493;53.098;6.064;2023-04-08T14:35:58;10.00;99.90
57664;DHT22;43493;53.098;6.064;2023-04-08T14:38:25;10.00;99.90
57664;DHT22;43493;53.098;6.064;2023-04-08T14:40:50;10.10;99.90
57664;DHT22;43493;53.098;6.064;2023-04-08T14:43:16;10.10;99.90
57664;DHT22;43493;53.098;6.064;2023-04-08T14:45:42;10.10;99.90
57664;DHT22;43493;53.098;6.064;2023-04-08T14:48:09;10.20;99.90
57664;DHT22;43493;53.098;6.064;2023-04-08T14:50:35;10.30;99.90
57664;DHT22;43493;53.098;6.064;2023-04-08T14:53:01;10.20;99.90
57664;DHT22;43493;53.098;6.064;2023-04-08T14:55:27;10.30;99.90
57664;DHT22;43493;53.098;6.064;2023-04-08T14:57:55;10.30;99.90
57664;DHT22;43493;53.098;6.064;2023-04-08T15:00:21;10.30;99.90
57664;DHT22;43493;53.098;6.064;2023-04-08T15:02:47;10.30;99.90
57664;DHT22;43493;53.098;6.064;2023-04-08T15:05:13;10.30;99.90
57664;DHT22;43493;53.098;6.064;2023-04-08T15:07:38;10.30;99.90
57664;DHT22;43493;53.098;6.064;2023-04-08T15:10:05;10.30;99.90
57664;DHT22;43493;53.098;6.064;2023-04-08T15:12:30;10.30;99.90
57664;DHT22;43493;53.098;6.064;2023-04-08T15:14:57;10.40;99.90
57664;DHT22;43493;53.098;6.064;2023-04-08T15:17:23;10.40;99.90
57664;DHT22;43493;53.098;6.064;2023-04-08T15:19:52;10.40;99.90
57664;DHT22;43493;53.098;6.064;2023-04-08T15:22:18;10.40;99.90
57664;DHT22;43493;53.098;6.064;2023-04-08T15:24:43;10.40;99.90
57664;DHT22;43493;53.098;6.064;2023-04-08T15:27:09;10.50;99.90
57664;DHT22;43493;53.098;6.064;2023-04-08T15:29:35;10.50;99.90
57664;DHT22;43493;53.098;6.064;2023-04-08T15:32:01;10.50;99.90
57664;DHT22;43493;53.098;6.064;2023-04-08T15:34:27;10.50;99.90
57664;DHT22;43493;53.098;6.064;2023-04-08T15:36:53;10.50;99.90
57664;DHT22;43493;53.098;6.064;2023-04-08T15:39:21;10.60;99.90
57664;DHT22;43493;53.098;6.064;2023-04-08T15:41:47;10.60;99.90
57664;DHT22;43493;53.098;6.064;2023-04-08T15:44:14;10.70;99.90
57664;DHT22;43493;53.098;6.064;2023-04-08T15:46:40;10.60;99.90
57664;DHT22;43493;53.098;6.064;2023-04-08T15:49:05;10.60;99.90
57664;DHT22;43493;53.098;6.064;2023-04-08T15:51:32;10.60;99.90
57664;DHT22;43493;53.098;6.064;2023-04-08T15:53:58;10.60;99.90
57664;DHT22;43493;53.098;6.064;2023-04-08T15:56:24;10.70;99.90
57664;DHT22;43493;53.098;6.064;2023-04-08T15:58:51;10.70;99.90
57664;DHT22;43493;53.098;6.064;2023-04-08T16:01:17;10.70;99.90
57664;DHT22;43493;53.098;6.064;2023-04-08T16:03:44;10.70;99.90